Time;durP1;ratioP1;P1;durP2;ratioP2;P2;SDS_P1;SDS_P2;PMS_P1;PMS_P2;Temp;Humidity;BMP_temperature;BMP_pressure;BME280_temperature;BME280_humidity;BME280_pressure;Samples;Min_cycle;Max_cycle;Signal;HPM_P1;HPM_P2
2020/12/30 00:01:33;;;;;;;10.13;9.03;;;1.00;99.90;;;;;;4831722;29;20262;-86
2020/12/30 00:03:59;;;;;;;9.80;8.87;;;1.10;99.90;;;;;;4838245;29;20194;-87
2020/12/30 00:06:25;;;;;;;9.87;7.97;;;1.20;99.90;;;;;;4837916;29;20479;-87
2020/12/30 00:08:51;;;;;;;11.40;8.53;;;1.20;99.90;;;;;;4836592;29;21169;-86
2020/12/30 00:11:17;;;;;;;9.97;8.90;;;1.20;99.90;;;;;;4831022;29;20222;-86
2020/12/30 00:13:43;;;;;;;9.50;8.20;;;1.20;99.90;;;;;;4838071;29;20237;-86
2020/12/30 00:16:08;;;;;;;9.30;7.30;;;1.30;99.90;;;;;;4835790;29;20458;-86
2020/12/30 00:18:37;;;;;;;8.90;7.70;;;1.30;99.90;;;;;;4839397;29;20451;-86
2020/12/30 00:21:05;;;;;;;7.03;6.27;;;1.20;99.90;;;;;;4836503;29;20194;-87
2020/12/30 00:24:15;;;;;;;10.23;7.30;;;1.10;99.90;;;;;;4838599;29;20976;-87
2020/12/30 00:26:42;;;;;;;8.30;7.37;;;1.20;99.90;;;;;;4836588;29;20483;-87
2020/12/30 00:29:12;;;;;;;8.30;7.40;;;1.20;99.90;;;;;;4836875;29;20481;-87
2020/12/30 00:31:48;;;;;;;6.63;5.93;;;1.20;99.90;;;;;;4831660;29;20249;-87
2020/12/30 00:34:14;;;;;;;9.23;6.63;;;1.20;99.90;;;;;;4838064;29;20459;-87
2020/12/30 00:36:56;;;;;;;9.40;7.10;;;1.20;99.90;;;;;;4835490;29;20458;-87
2020/12/30 00:39:41;;;;;;;8.20;7.20;;;1.20;99.90;;;;;;4837133;29;20458;-88
2020/12/30 00:42:11;;;;;;;9.00;7.27;;;1.30;99.90;;;;;;4834340;29;20462;-87
2020/12/30 00:45:00;;;;;;;8.20;7.40;;;1.30;99.90;;;;;;4837730;29;20449;-87
2020/12/30 00:47:30;;;;;;;8.13;7.10;;;1.30;99.90;;;;;;4836135;29;20910;-88
2020/12/30 00:50:03;;;;;;;7.77;6.50;;;1.30;99.90;;;;;;4823958;29;20456;-87
2020/12/30 00:52:29;;;;;;;8.20;6.50;;;1.40;99.90;;;;;;4818785;29;20499;-87
2020/12/30 00:54:55;;;;;;;7.60;6.43;;;1.40;99.90;;;;;;4837385;29;20428;-87
2020/12/30 00:57:21;;;;;;;7.67;6.70;;;1.40;99.90;;;;;;4835271;29;20609;-87
2020/12/30 00:59:47;;;;;;;7.93;6.30;;;1.50;99.90;;;;;;4834714;29;20197;-86
2020/12/30 01:02:14;;;;;;;6.70;5.53;;;1.50;99.90;;;;;;4831891;29;20472;-86
2020/12/30 01:04:40;;;;;;;6.57;5.70;;;1.50;99.90;;;;;;4822371;29;20197;-86
2020/12/30 01:07:06;;;;;;;6.97;6.27;;;1.50;99.90;;;;;;4836371;29;20496;-87
2020/12/30 01:09:33;;;;;;;7.50;5.83;;;1.60;99.90;;;;;;4838609;29;20301;-86
2020/12/30 01:12:03;;;;;;;7.07;5.83;;;1.70;99.90;;;;;;4839135;29;20835;-86
2020/12/30 01:14:29;;;;;;;7.90;6.60;;;1.70;99.90;;;;;;4833690;29;20468;-86
2020/12/30 01:16:55;;;;;;;10.80;8.60;;;1.80;99.90;;;;;;4837291;29;20484;-86
2020/12/30 01:19:22;;;;;;;10.53;8.47;;;1.80;99.90;;;;;;4835370;29;20445;-86
2020/12/30 01:21:56;;;;;;;9.97;7.90;;;1.80;99.90;;;;;;4844487;29;20487;-86
2020/12/30 01:24:37;;;;;;;10.47;7.27;;;1.80;99.90;;;;;;4836521;29;20458;-86
2020/12/30 01:27:04;;;;;;;8.87;7.97;;;1.90;99.90;;;;;;4842734;29;21004;-86
2020/12/30 01:29:29;;;;;;;9.57;7.50;;;2.00;99.90;;;;;;4835867;29;20246;-86
2020/12/30 01:31:55;;;;;;;7.07;6.40;;;2.00;99.90;;;;;;4837197;29;21078;-86
2020/12/30 01:34:21;;;;;;;6.30;5.63;;;2.10;99.90;;;;;;4839190;29;20201;-86
2020/12/30 01:36:53;;;;;;;5.93;5.33;;;2.10;99.90;;;;;;4843474;29;20229;-86
2020/12/30 01:39:21;;;;;;;8.33;6.10;;;2.10;99.90;;;;;;4838485;29;20208;-86
2020/12/30 01:41:51;;;;;;;5.03;4.53;;;2.10;99.90;;;;;;4840599;29;20500;-86
2020/12/30 01:44:17;;;;;;;5.10;4.30;;;2.20;99.90;;;;;;4836281;29;20456;-86
2020/12/30 01:46:48;;;;;;;5.17;4.33;;;2.20;99.90;;;;;;4838201;29;20480;-86
2020/12/30 01:49:22;;;;;;;4.93;4.43;;;2.30;99.90;;;;;;4840373;29;20956;-86
2020/12/30 01:51:51;;;;;;;4.87;4.47;;;2.30;99.90;;;;;;4822381;29;20459;-86
2020/12/30 01:54:18;;;;;;;4.57;4.10;;;2.30;99.90;;;;;;4840908;29;20462;-86
2020/12/30 01:56:45;;;;;;;4.93;4.43;;;2.30;99.90;;;;;;4839984;29;20977;-85
2020/12/30 01:59:14;;;;;;;5.17;4.43;;;2.30;99.90;;;;;;4837582;29;20854;-85
2020/12/30 02:01:51;;;;;;;4.50;4.10;;;2.40;99.90;;;;;;4836476;29;20455;-85
2020/12/30 02:04:23;;;;;;;4.93;4.23;;;2.30;99.90;;;;;;4852922;29;20467;-85
2020/12/30 02:06:49;;;;;;;4.57;4.10;;;2.20;99.90;;;;;;4840148;29;20862;-86
2020/12/30 02:09:15;;;;;;;5.13;4.63;;;2.10;99.90;;;;;;4833691;29;20665;-85
2020/12/30 02:11:40;;;;;;;4.83;4.30;;;2.10;99.90;;;;;;4838581;29;20301;-85
2020/12/30 02:14:15;;;;;;;5.97;4.23;;;2.10;99.90;;;;;;4844527;29;20568;-85
2020/12/30 02:16:47;;;;;;;4.67;4.27;;;2.10;99.90;;;;;;4835584;29;20532;-85
2020/12/30 02:19:24;;;;;;;4.43;3.93;;;2.10;99.90;;;;;;4833127;29;20240;-85
2020/12/30 02:22:05;;;;;;;4.97;4.30;;;2.10;99.90;;;;;;4834922;29;20443;-85
2020/12/30 02:24:31;;;;;;;6.47;3.80;;;2.10;99.90;;;;;;4838866;29;20474;-85
2020/12/30 02:26:59;;;;;;;4.93;4.23;;;2.00;99.90;;;;;;4844203;29;20514;-85
2020/12/30 02:29:24;;;;;;;4.63;4.10;;;2.00;99.90;;;;;;4837281;29;20467;-85
2020/12/30 02:31:50;;;;;;;4.00;3.70;;;2.00;99.90;;;;;;4837192;29;20991;-86
2020/12/30 02:34:19;;;;;;;4.07;3.40;;;2.00;99.90;;;;;;4834779;29;20509;-85
2020/12/30 02:36:44;;;;;;;4.53;3.70;;;2.00;99.90;;;;;;4834718;29;20880;-85
2020/12/30 02:39:13;;;;;;;4.57;3.40;;;2.00;99.90;;;;;;4841547;29;20455;-85
2020/12/30 02:41:49;;;;;;;3.37;3.07;;;2.10;99.90;;;;;;4838591;29;20510;-86
2020/12/30 02:44:23;;;;;;;2.97;2.73;;;2.10;99.90;;;;;;4837730;29;20475;-85
2020/12/30 02:46:51;;;;;;;4.40;2.90;;;2.10;99.90;;;;;;4835293;29;21479;-86
2020/12/30 02:49:22;;;;;;;4.57;2.90;;;2.10;99.90;;;;;;4833710;29;20469;-86
2020/12/30 02:54:19;;;;;;;3.93;3.20;;;2.10;99.90;;;;;;4836827;29;20209;-86
2020/12/30 02:59:24;;;;;;;3.83;3.43;;;2.10;99.90;;;;;;4838437;29;20245;-86
2020/12/30 03:01:51;;;;;;;3.83;2.90;;;2.10;99.90;;;;;;4837423;29;21028;-85
2020/12/30 03:04:17;;;;;;;4.03;2.50;;;2.10;99.90;;;;;;4842117;29;20521;-85
2020/12/30 03:06:43;;;;;;;4.10;3.10;;;2.00;99.90;;;;;;4836550;29;20562;-85
2020/12/30 03:09:10;;;;;;;4.10;3.40;;;2.00;99.90;;;;;;4842485;29;20212;-85
2020/12/30 03:11:36;;;;;;;3.33;3.03;;;2.00;99.90;;;;;;4838146;29;20247;-86
2020/12/30 03:14:02;;;;;;;3.80;3.10;;;2.00;99.90;;;;;;4836519;29;20758;-86
2020/12/30 03:16:27;;;;;;;5.83;3.50;;;2.00;99.90;;;;;;4840172;29;20210;-86
2020/12/30 03:18:56;;;;;;;3.77;3.47;;;2.00;99.90;;;;;;4837842;29;20186;-85
2020/12/30 03:21:27;;;;;;;4.13;3.33;;;2.00;99.90;;;;;;4837600;29;20756;-86
2020/12/30 03:23:56;;;;;;;4.33;3.93;;;1.90;99.90;;;;;;4836661;29;20482;-85
2020/12/30 03:26:33;;;;;;;4.40;3.10;;;1.80;99.90;;;;;;4836195;29;20908;-86
2020/12/30 03:29:01;;;;;;;3.60;3.30;;;1.90;99.90;;;;;;4835615;29;20222;-86
2020/12/30 03:31:28;;;;;;;4.53;3.33;;;1.90;99.90;;;;;;4841905;29;20433;-86
2020/12/30 03:33:55;;;;;;;3.47;3.00;;;1.90;99.90;;;;;;4839483;29;20912;-86
2020/12/30 03:36:20;;;;;;;3.33;3.00;;;1.90;99.90;;;;;;4832683;29;22132;-85
2020/12/30 03:38:46;;;;;;;2.97;2.77;;;1.90;99.90;;;;;;4841733;29;20814;-86
2020/12/30 03:41:12;;;;;;;3.20;2.57;;;1.80;99.90;;;;;;4829194;29;20339;-86
2020/12/30 03:43:37;;;;;;;3.20;2.60;;;1.80;99.90;;;;;;4830659;29;20660;-85
2020/12/30 03:46:03;;;;;;;3.63;2.87;;;1.80;99.90;;;;;;4833397;29;20194;-85
2020/12/30 03:48:28;;;;;;;6.13;3.17;;;1.70;99.90;;;;;;4835583;29;20270;-85
2020/12/30 03:50:54;;;;;;;3.10;2.80;;;1.60;99.90;;;;;;4833025;29;20220;-85
2020/12/30 03:53:20;;;;;;;3.50;2.63;;;1.50;99.90;;;;;;4836610;29;20708;-86
2020/12/30 03:55:45;;;;;;;3.07;2.80;;;1.50;99.90;;;;;;4841146;29;20669;-85
2020/12/30 03:58:11;;;;;;;3.80;3.00;;;1.40;99.90;;;;;;4856414;29;20212;-85
2020/12/30 04:00:36;;;;;;;4.00;2.80;;;1.30;99.90;;;;;;4837072;29;20298;-85
2020/12/30 04:03:02;;;;;;;2.97;2.77;;;1.40;99.90;;;;;;4830144;29;20233;-86
2020/12/30 04:05:28;;;;;;;2.83;2.27;;;1.40;99.90;;;;;;4836040;29;20191;-85
2020/12/30 04:07:53;;;;;;;3.40;3.10;;;1.30;99.90;;;;;;4836646;29;20696;-85
2020/12/30 04:10:22;;;;;;;3.20;3.00;;;1.30;99.90;;;;;;4837937;29;20255;-85
2020/12/30 04:13:02;;;;;;;3.57;2.73;;;1.10;99.90;;;;;;4833802;29;20525;-86
2020/12/30 04:15:31;;;;;;;3.70;3.20;;;1.10;99.90;;;;;;4833222;29;20468;-86
2020/12/30 04:17:56;;;;;;;3.40;2.67;;;1.10;99.90;;;;;;4835070;29;20545;-85
2020/12/30 04:20:25;;;;;;;3.63;2.80;;;1.10;99.90;;;;;;4835125;29;20204;-86
2020/12/30 04:22:51;;;;;;;3.53;2.73;;;1.10;99.90;;;;;;4836006;29;20318;-85
2020/12/30 04:25:16;;;;;;;2.97;2.73;;;1.20;99.90;;;;;;4836387;29;20630;-86
2020/12/30 04:27:42;;;;;;;3.73;2.47;;;1.30;99.90;;;;;;4834164;29;20743;-86
2020/12/30 04:30:08;;;;;;;2.57;2.37;;;1.20;99.90;;;;;;4836801;29;20592;-86
2020/12/30 04:32:33;;;;;;;2.50;2.23;;;1.30;99.90;;;;;;4840878;29;20260;-85
2020/12/30 04:35:04;;;;;;;2.40;2.20;;;1.40;99.90;;;;;;4834502;29;20320;-86
2020/12/30 04:37:39;;;;;;;4.33;2.10;;;1.50;99.90;;;;;;4834942;29;20211;-85
2020/12/30 04:40:04;;;;;;;1.90;1.80;;;1.60;99.90;;;;;;4836499;29;20436;-86
2020/12/30 04:42:34;;;;;;;3.13;1.87;;;1.70;99.90;;;;;;4834931;29;20904;-87
2020/12/30 04:45:04;;;;;;;2.83;2.10;;;1.90;99.90;;;;;;4856871;29;20461;-85
2020/12/30 04:47:31;;;;;;;3.03;1.73;;;1.90;99.90;;;;;;4840364;29;20487;-86
2020/12/30 04:49:57;;;;;;;2.03;1.70;;;1.90;99.90;;;;;;4838301;29;20573;-85
2020/12/30 04:52:26;;;;;;;3.77;1.50;;;1.90;99.90;;;;;;4842996;29;20547;-85
2020/12/30 04:54:54;;;;;;;2.50;2.30;;;1.90;99.90;;;;;;4837553;29;20443;-86
2020/12/30 04:57:54;;;;;;;2.83;2.63;;;1.90;99.90;;;;;;4841500;29;20451;-86
2020/12/30 05:00:20;;;;;;;2.70;1.93;;;1.80;99.90;;;;;;4839019;29;20820;-86
2020/12/30 05:02:49;;;;;;;2.03;1.93;;;1.70;99.90;;;;;;4841363;29;21005;-86
2020/12/30 05:05:17;;;;;;;2.43;2.20;;;1.60;99.90;;;;;;4837217;29;20516;-86
2020/12/30 05:07:46;;;;;;;2.33;2.13;;;1.60;99.90;;;;;;4858102;29;20504;-86
2020/12/30 05:10:21;;;;;;;2.53;2.33;;;1.50;99.90;;;;;;4840450;29;20460;-85
2020/12/30 05:12:47;;;;;;;3.03;2.83;;;1.60;99.90;;;;;;4855102;29;20999;-86
2020/12/30 05:15:13;;;;;;;5.20;3.27;;;1.50;99.90;;;;;;4838089;29;20440;-86
2020/12/30 05:17:51;;;;;;;3.83;3.27;;;1.40;99.90;;;;;;4841609;29;20225;-85
2020/12/30 05:20:20;;;;;;;4.37;3.97;;;1.30;99.90;;;;;;4845066;29;20197;-85
2020/12/30 05:22:48;;;;;;;4.80;3.77;;;1.20;99.90;;;;;;4839754;29;20834;-85
2020/12/30 05:25:16;;;;;;;3.40;3.10;;;1.20;99.90;;;;;;4842336;29;20445;-85
2020/12/30 05:27:43;;;;;;;3.60;3.10;;;1.20;99.90;;;;;;4837544;29;20483;-86
2020/12/30 05:30:09;;;;;;;6.27;4.00;;;1.30;99.90;;;;;;4838367;29;20458;-86
2020/12/30 05:32:36;;;;;;;3.13;2.93;;;1.30;99.90;;;;;;4837459;29;20993;-86
2020/12/30 05:35:02;;;;;;;6.30;3.57;;;1.30;99.90;;;;;;4836967;29;20501;-86
2020/12/30 05:37:33;;;;;;;3.13;2.90;;;1.30;99.90;;;;;;4839919;29;20464;-86
2020/12/30 05:40:04;;;;;;;3.43;3.13;;;1.30;99.90;;;;;;4861004;29;20454;-86
2020/12/30 05:42:30;;;;;;;3.60;3.30;;;1.30;99.90;;;;;;4845032;29;20471;-86
2020/12/30 05:45:01;;;;;;;3.30;3.00;;;1.40;99.90;;;;;;4834081;29;20439;-86
2020/12/30 05:47:29;;;;;;;3.37;3.07;;;1.40;99.90;;;;;;4839391;29;20235;-86
2020/12/30 05:49:57;;;;;;;3.33;3.03;;;1.30;99.90;;;;;;4856106;29;20446;-86
2020/12/30 05:52:25;;;;;;;5.17;2.40;;;1.40;99.90;;;;;;4838399;29;20478;-86
2020/12/30 05:54:50;;;;;;;3.53;2.37;;;1.30;99.90;;;;;;4840085;29;20535;-85
2020/12/30 05:57:26;;;;;;;2.60;2.40;;;1.40;99.90;;;;;;4839594;29;20482;-86
2020/12/30 05:59:55;;;;;;;2.73;2.53;;;1.40;99.90;;;;;;4831916;29;20206;-85
2020/12/30 06:02:30;;;;;;;3.00;2.80;;;1.40;99.90;;;;;;4837410;29;20849;-85
2020/12/30 06:05:22;;;;;;;3.73;2.60;;;1.40;99.90;;;;;;4822541;29;20446;-85
2020/12/30 06:07:53;;;;;;;2.60;2.40;;;1.40;99.90;;;;;;4825172;29;20924;-85
2020/12/30 06:10:24;;;;;;;3.83;2.87;;;1.40;99.90;;;;;;4837396;29;20463;-86
2020/12/30 06:12:55;;;;;;;3.97;3.10;;;1.40;99.90;;;;;;4839799;29;20459;-86
2020/12/30 06:15:23;;;;;;;3.60;2.63;;;1.40;99.90;;;;;;4840637;29;20466;-86
2020/12/30 06:18:02;;;;;;;3.03;2.73;;;1.40;99.90;;;;;;4852846;29;20459;-86
2020/12/30 06:20:31;;;;;;;4.63;3.10;;;1.40;99.90;;;;;;4838877;29;20988;-86
2020/12/30 06:23:15;;;;;;;3.30;3.00;;;1.40;99.90;;;;;;4837150;29;20432;-86
2020/12/30 06:25:58;;;;;;;3.97;3.37;;;1.40;99.90;;;;;;4838320;29;20458;-87
2020/12/30 06:28:28;;;;;;;4.30;3.90;;;1.40;99.90;;;;;;4839764;29;20497;-86
2020/12/30 06:30:54;;;;;;;4.00;3.60;;;1.40;99.90;;;;;;4835481;29;20455;-86
2020/12/30 06:33:23;;;;;;;3.20;2.90;;;1.40;99.90;;;;;;4835467;29;20455;-85
2020/12/30 06:35:55;;;;;;;3.80;3.50;;;1.50;99.90;;;;;;4834798;29;20195;-85
2020/12/30 06:38:31;;;;;;;4.83;3.60;;;1.40;99.90;;;;;;4836068;29;20501;-85
2020/12/30 06:41:02;;;;;;;3.60;3.27;;;1.50;99.90;;;;;;4855429;29;20434;-85
2020/12/30 06:43:48;;;;;;;4.27;3.40;;;1.40;99.90;;;;;;4856721;29;20483;-85
2020/12/30 06:46:23;;;;;;;3.47;3.17;;;1.40;99.90;;;;;;4837706;29;20971;-85
2020/12/30 06:48:53;;;;;;;3.70;3.17;;;1.40;99.90;;;;;;4838177;29;20875;-85
2020/12/30 06:51:18;;;;;;;3.70;3.40;;;1.30;99.90;;;;;;4839695;29;20458;-85
2020/12/30 06:54:10;;;;;;;5.00;3.50;;;1.30;99.90;;;;;;4839584;29;20451;-85
2020/12/30 06:56:43;;;;;;;4.33;3.07;;;1.30;99.90;;;;;;4840789;29;20583;-84
2020/12/30 06:59:31;;;;;;;4.23;3.10;;;1.30;99.90;;;;;;4834246;29;20451;-84
2020/12/30 07:02:02;;;;;;;3.90;3.47;;;1.30;99.90;;;;;;4836443;29;20515;-85
2020/12/30 07:04:37;;;;;;;3.90;3.47;;;1.20;99.90;;;;;;4852779;29;20462;-85
2020/12/30 07:07:19;;;;;;;3.30;2.90;;;1.30;99.90;;;;;;4852345;29;20483;-84
2020/12/30 07:09:45;;;;;;;5.93;3.53;;;1.20;99.90;;;;;;4839213;29;20450;-85
2020/12/30 07:12:11;;;;;;;4.70;3.80;;;1.20;99.90;;;;;;4836419;29;20978;-84
2020/12/30 07:14:37;;;;;;;3.87;3.57;;;1.20;99.90;;;;;;4833105;29;20290;-85
2020/12/30 07:17:04;;;;;;;4.33;3.70;;;1.20;99.90;;;;;;4837514;29;20199;-84
2020/12/30 07:19:32;;;;;;;4.47;3.60;;;1.10;99.90;;;;;;4838914;29;20646;-84
2020/12/30 07:22:11;;;;;;;6.27;3.70;;;1.20;99.90;;;;;;4837635;29;20460;-84
2020/12/30 07:24:56;;;;;;;4.10;3.70;;;1.10;99.90;;;;;;4857566;29;20458;-84
2020/12/30 07:27:27;;;;;;;4.20;3.37;;;1.10;99.90;;;;;;4840261;29;20486;-84
2020/12/30 07:29:53;;;;;;;3.87;3.23;;;1.20;99.90;;;;;;4856995;29;20499;-84
2020/12/30 07:32:19;;;;;;;6.63;3.47;;;1.20;99.90;;;;;;4836055;29;20462;-85
2020/12/30 07:34:46;;;;;;;3.83;3.43;;;1.20;99.90;;;;;;4835770;29;20206;-85
2020/12/30 07:37:13;;;;;;;4.77;3.53;;;1.10;99.90;;;;;;4838597;29;20821;-84
2020/12/30 07:39:41;;;;;;;3.77;3.40;;;1.10;99.90;;;;;;4837720;29;20835;-84
2020/12/30 07:42:27;;;;;;;4.00;3.10;;;1.10;99.90;;;;;;4839408;29;20562;-85
2020/12/30 07:44:55;;;;;;;3.20;2.93;;;1.00;99.90;;;;;;4838531;29;20486;-84
2020/12/30 07:47:22;;;;;;;4.80;3.33;;;1.10;99.90;;;;;;4836951;29;20865;-84
2020/12/30 07:49:48;;;;;;;4.90;3.80;;;1.20;99.90;;;;;;4835194;29;20863;-84
2020/12/30 07:52:16;;;;;;;3.90;3.50;;;1.30;99.90;;;;;;4841515;29;20459;-84
2020/12/30 07:54:42;;;;;;;3.50;3.13;;;1.20;99.90;;;;;;4836217;29;20887;-84
2020/12/30 07:57:12;;;;;;;3.50;3.20;;;1.30;99.90;;;;;;4836628;29;21167;-84
2020/12/30 07:59:39;;;;;;;3.60;3.27;;;1.40;99.90;;;;;;4835788;29;20771;-84
2020/12/30 08:02:16;;;;;;;4.57;3.83;;;1.40;99.90;;;;;;4838276;29;21048;-84
2020/12/30 08:04:44;;;;;;;4.40;3.50;;;1.30;99.90;;;;;;4839276;29;21112;-84
2020/12/30 08:07:11;;;;;;;3.43;3.13;;;1.30;99.90;;;;;;4837238;29;20505;-84
2020/12/30 08:09:39;;;;;;;4.53;3.50;;;1.40;99.90;;;;;;4834918;29;20475;-85
2020/12/30 08:12:06;;;;;;;6.90;5.73;;;1.50;99.90;;;;;;4855489;29;20447;-84
2020/12/30 08:14:34;;;;;;;106.93;61.83;;;1.50;99.90;;;;;;4837050;29;21007;-84
2020/12/30 08:17:08;;;;;;;11.50;8.43;;;1.60;99.90;;;;;;4834680;29;21088;-84
2020/12/30 08:19:36;;;;;;;4.97;4.20;;;1.80;99.90;;;;;;4843113;29;20455;-84
2020/12/30 08:22:05;;;;;;;7.37;4.70;;;1.90;99.90;;;;;;4835114;29;20993;-83
2020/12/30 08:24:32;;;;;;;4.87;4.23;;;1.90;99.90;;;;;;4831605;29;20544;-84
2020/12/30 08:26:58;;;;;;;4.97;4.37;;;1.80;99.90;;;;;;4838583;29;20482;-83
2020/12/30 08:29:29;;;;;;;4.97;4.50;;;1.80;99.90;;;;;;4832095;29;20463;-83
2020/12/30 08:31:57;;;;;;;5.23;4.40;;;1.80;99.90;;;;;;4824565;29;20438;-82
2020/12/30 08:34:26;;;;;;;5.57;4.20;;;1.80;99.90;;;;;;4842267;29;20830;-83
2020/12/30 08:37:04;;;;;;;6.43;4.83;;;1.80;99.90;;;;;;4839813;29;20532;-83
2020/12/30 08:39:30;;;;;;;6.47;4.70;;;1.90;99.90;;;;;;4852055;29;21004;-83
2020/12/30 08:41:59;;;;;;;24.50;15.43;;;2.00;99.90;;;;;;4843321;29;20501;-82
2020/12/30 08:44:26;;;;;;;10.70;8.37;;;2.10;99.90;;;;;;4840594;29;20546;-83
2020/12/30 08:46:57;;;;;;;7.23;6.33;;;2.10;99.90;;;;;;4838781;29;20485;-82
2020/12/30 08:49:25;;;;;;;4.70;4.20;;;2.30;99.90;;;;;;4841330;29;20807;-83
2020/12/30 08:51:52;;;;;;;7.87;4.73;;;2.30;99.90;;;;;;4852588;29;20519;-82
2020/12/30 08:54:18;;;;;;;6.17;3.87;;;2.30;99.90;;;;;;4839049;29;20447;-83
2020/12/30 08:56:46;;;;;;;6.30;4.30;;;2.40;99.90;;;;;;4837259;29;20471;-82
2020/12/30 08:59:22;;;;;;;5.33;4.37;;;2.40;99.90;;;;;;4840407;29;20555;-82
2020/12/30 09:01:48;;;;;;;4.27;3.87;;;2.50;99.90;;;;;;4834562;29;20466;-83
2020/12/30 09:04:14;;;;;;;7.00;4.30;;;2.60;99.90;;;;;;4839852;29;20454;-82
2020/12/30 09:06:40;;;;;;;5.47;4.53;;;2.80;99.90;;;;;;4839651;29;20539;-83
2020/12/30 09:09:15;;;;;;;5.87;5.37;;;2.90;99.90;;;;;;4838354;29;20257;-82
2020/12/30 09:11:49;;;;;;;4.57;4.13;;;3.00;99.90;;;;;;4840875;29;20489;-82
2020/12/30 09:14:19;;;;;;;3.57;3.27;;;3.20;99.90;;;;;;4843581;29;20451;-83
2020/12/30 09:17:04;;;;;;;6.30;3.87;;;3.30;99.90;;;;;;4838288;29;20465;-82
2020/12/30 09:19:30;;;;;;;4.57;4.17;;;3.40;99.90;;;;;;4836948;29;20467;-83
2020/12/30 09:22:07;;;;;;;4.10;3.70;;;3.40;99.90;;;;;;4835943;29;20460;-83
2020/12/30 09:24:40;;;;;;;4.70;3.37;;;3.30;99.90;;;;;;4858597;29;20502;-82
2020/12/30 09:27:20;;;;;;;5.53;5.03;;;3.30;99.90;;;;;;4836671;29;20845;-83
2020/12/30 09:29:45;;;;;;;2.93;2.73;;;3.20;99.90;;;;;;4833455;29;21032;-83
2020/12/30 09:32:23;;;;;;;5.67;3.77;;;3.30;99.90;;;;;;4831258;29;20496;-82
2020/12/30 09:34:59;;;;;;;3.07;2.60;;;3.40;99.90;;;;;;4837280;29;20580;-83
2020/12/30 09:37:24;;;;;;;3.53;3.20;;;3.50;99.90;;;;;;4835622;29;20455;-82
2020/12/30 09:40:19;;;;;;;3.30;2.60;;;3.60;99.90;;;;;;4836341;29;20666;-82
2020/12/30 09:42:46;;;;;;;3.23;2.93;;;3.70;99.90;;;;;;4840177;29;20572;-83
2020/12/30 09:45:13;;;;;;;3.50;3.20;;;3.70;99.90;;;;;;4835169;29;20968;-82
2020/12/30 09:47:40;;;;;;;3.00;2.60;;;3.60;99.90;;;;;;4838691;29;20494;-82
2020/12/30 09:50:14;;;;;;;3.93;3.23;;;3.50;99.90;;;;;;4838317;29;20490;-83
2020/12/30 09:52:45;;;;;;;3.80;3.13;;;3.50;99.90;;;;;;4833806;29;20463;-83
2020/12/30 09:55:13;;;;;;;2.60;2.40;;;3.70;99.90;;;;;;4835905;29;20512;-85
2020/12/30 09:57:41;;;;;;;4.50;2.97;;;3.70;99.90;;;;;;4836919;29;20451;-83
2020/12/30 10:00:09;;;;;;;3.23;2.97;;;3.70;99.90;;;;;;4835490;29;20447;-82
2020/12/30 10:02:34;;;;;;;4.03;3.47;;;3.80;99.90;;;;;;4841330;29;20480;-83
2020/12/30 10:05:00;;;;;;;3.77;3.43;;;3.90;99.90;;;;;;4838732;29;21046;-86
2020/12/30 10:07:27;;;;;;;5.97;4.30;;;4.00;99.90;;;;;;4834110;29;20227;-82
2020/12/30 10:09:53;;;;;;;5.07;4.40;;;4.00;99.90;;;;;;4841451;29;20542;-84
2020/12/30 10:12:20;;;;;;;7.00;4.60;;;4.00;99.90;;;;;;4840780;29;20541;-84
2020/12/30 10:14:46;;;;;;;4.90;4.17;;;4.10;99.90;;;;;;4835533;29;20554;-85
2020/12/30 10:17:12;;;;;;;4.43;2.60;;;4.20;99.90;;;;;;4835771;29;20459;-88
2020/12/30 10:19:37;;;;;;;2.63;2.43;;;4.30;99.90;;;;;;4839045;29;20610;-85
2020/12/30 10:22:07;;;;;;;3.80;2.97;;;4.30;99.90;;;;;;4837586;29;20953;-84
2020/12/30 10:24:34;;;;;;;4.30;2.80;;;4.30;99.90;;;;;;4835042;29;20194;-85
2020/12/30 10:26:59;;;;;;;3.47;2.97;;;4.30;99.90;;;;;;4836546;29;20834;-84
2020/12/30 10:29:30;;;;;;;2.73;2.53;;;4.60;99.90;;;;;;4835842;29;20463;-84
2020/12/30 10:31:56;;;;;;;4.50;3.37;;;4.80;99.90;;;;;;4833561;29;20201;-85
2020/12/30 10:34:24;;;;;;;5.07;3.93;;;5.10;99.90;;;;;;4833008;29;20457;-84
2020/12/30 10:36:50;;;;;;;5.30;3.70;;;5.50;99.90;;;;;;4834967;29;20483;-84
2020/12/30 10:39:15;;;;;;;5.70;3.80;;;5.90;99.90;;;;;;4834090;29;20693;-84
2020/12/30 10:41:41;;;;;;;3.67;2.97;;;5.90;99.90;;;;;;4831761;29;20980;-85
2020/12/30 10:44:07;;;;;;;5.20;2.90;;;5.70;99.90;;;;;;4837050;29;20222;-86
2020/12/30 10:46:32;;;;;;;4.03;3.10;;;5.30;99.90;;;;;;4832080;29;20592;-85
2020/12/30 10:48:58;;;;;;;3.43;3.13;;;5.10;99.90;;;;;;4834190;29;20678;-85
2020/12/30 10:51:24;;;;;;;3.47;3.17;;;5.10;99.90;;;;;;4840222;29;20202;-86
2020/12/30 10:53:52;;;;;;;3.30;2.63;;;5.10;99.90;;;;;;4840466;29;20205;-83
2020/12/30 10:56:18;;;;;;;3.90;2.87;;;5.20;99.90;;;;;;4836078;29;20207;-85
2020/12/30 10:58:46;;;;;;;2.40;2.20;;;5.30;99.90;;;;;;4834523;29;20459;-85
2020/12/30 11:01:13;;;;;;;3.17;1.73;;;5.50;99.90;;;;;;4835048;29;21043;-83
2020/12/30 11:03:39;;;;;;;2.80;2.40;;;5.90;99.90;;;;;;4834455;29;21472;-83
2020/12/30 11:06:06;;;;;;;1.77;1.63;;;6.10;99.90;;;;;;4835412;29;20528;-84
2020/12/30 11:08:33;;;;;;;2.47;1.87;;;6.80;99.90;;;;;;4836759;29;21085;-82
2020/12/30 11:11:03;;;;;;;2.30;2.10;;;8.00;99.70;;;;;;4837856;29;20463;-84
2020/12/30 11:13:29;;;;;;;1.67;1.57;;;8.30;98.90;;;;;;4835482;29;20884;-83
2020/12/30 11:15:55;;;;;;;3.13;2.73;;;7.60;98.60;;;;;;4834704;29;20455;-78
2020/12/30 11:18:21;;;;;;;4.13;2.00;;;7.00;99.90;;;;;;4835429;29;20200;-84
2020/12/30 11:20:47;;;;;;;3.50;2.20;;;6.50;99.90;;;;;;4834402;29;20212;-84
2020/12/30 11:23:16;;;;;;;3.00;1.83;;;6.00;99.90;;;;;;4832249;29;20436;-86
2020/12/30 11:25:43;;;;;;;3.67;2.27;;;5.70;99.90;;;;;;4837309;29;20621;-86
2020/12/30 11:28:10;;;;;;;2.73;2.40;;;5.40;99.90;;;;;;4836920;29;20489;-83
2020/12/30 11:30:51;;;;;;;3.10;2.47;;;5.30;99.90;;;;;;4836438;29;20494;-85
2020/12/30 11:33:17;;;;;;;4.10;2.97;;;5.30;99.90;;;;;;4841026;29;20480;-86
2020/12/30 11:35:44;;;;;;;3.80;3.40;;;5.50;99.90;;;;;;4841178;29;20439;-85
2020/12/30 11:38:21;;;;;;;3.43;2.80;;;5.60;99.90;;;;;;4822413;29;20444;-87
2020/12/30 11:40:47;;;;;;;2.90;2.60;;;5.60;99.90;;;;;;4839707;29;20456;-85
2020/12/30 11:43:19;;;;;;;5.87;2.10;;;5.60;99.90;;;;;;4856713;29;20802;-86
2020/12/30 11:45:48;;;;;;;2.80;2.33;;;5.60;99.90;;;;;;4837723;29;20207;-86
2020/12/30 11:48:13;;;;;;;3.17;2.30;;;5.60;99.90;;;;;;4855484;29;20499;-86
2020/12/30 11:51:02;;;;;;;3.90;2.30;;;5.50;99.90;;;;;;4836736;29;20433;-87
2020/12/30 11:53:28;;;;;;;2.20;1.93;;;5.50;99.90;;;;;;4835929;29;20199;-84
2020/12/30 11:56:29;;;;;;;2.67;1.97;;;5.40;99.90;;;;;;4835394;29;20443;-85
2020/12/30 11:59:13;;;;;;;2.63;2.43;;;5.40;99.90;;;;;;4831631;29;20296;-87
2020/12/30 12:01:44;;;;;;;1.90;1.80;;;5.30;99.90;;;;;;4839655;29;20444;-88
2020/12/30 12:04:13;;;;;;;1.80;1.70;;;5.30;99.90;;;;;;4836692;29;20829;-88
2020/12/30 12:06:39;;;;;;;3.23;2.40;;;5.30;99.90;;;;;;4837399;29;20481;-85
2020/12/30 12:09:05;;;;;;;4.00;2.63;;;5.20;99.90;;;;;;4839389;29;20659;-85
2020/12/30 12:11:31;;;;;;;2.50;2.20;;;5.20;99.90;;;;;;4838198;29;20458;-86
2020/12/30 12:13:58;;;;;;;2.53;2.33;;;5.30;99.90;;;;;;4839059;29;20406;-84
2020/12/30 12:16:24;;;;;;;2.00;1.77;;;5.20;99.90;;;;;;4833678;29;20474;-85
2020/12/30 12:18:50;;;;;;;2.60;2.17;;;5.20;99.90;;;;;;4833765;29;20444;-86
2020/12/30 12:21:15;;;;;;;3.00;2.80;;;5.20;99.90;;;;;;4834654;29;20198;-83
2020/12/30 12:23:42;;;;;;;2.70;2.50;;;5.20;99.90;;;;;;4841753;29;20225;-84
2020/12/30 12:26:08;;;;;;;3.77;2.50;;;5.10;99.90;;;;;;4838143;29;20197;-86
2020/12/30 12:29:25;;;;;;;2.53;2.27;;;5.10;99.90;;;;;;4834789;29;20502;-85
2020/12/30 12:32:15;;;;;;;3.30;2.53;;;5.20;99.90;;;;;;4825374;29;20202;-85
2020/12/30 12:34:48;;;;;;;2.80;2.50;;;5.30;99.90;;;;;;4838984;29;20451;-85
2020/12/30 12:37:15;;;;;;;3.40;2.30;;;5.20;99.90;;;;;;4834646;29;20449;-85
2020/12/30 12:39:43;;;;;;;3.60;2.20;;;5.30;99.90;;;;;;4837329;29;21086;-89
2020/12/30 12:42:09;;;;;;;2.70;1.93;;;5.30;99.90;;;;;;4833253;29;20477;-86
2020/12/30 12:44:34;;;;;;;2.60;1.80;;;5.50;99.90;;;;;;4838203;29;20458;-88
2020/12/30 12:47:00;;;;;;;2.87;2.20;;;5.70;99.90;;;;;;4841601;29;21097;-88
2020/12/30 12:49:26;;;;;;;2.07;1.90;;;6.00;99.90;;;;;;4837889;29;20640;-87
2020/12/30 12:51:54;;;;;;;2.33;1.87;;;6.80;99.90;;;;;;4837154;29;20650;-87
2020/12/30 12:54:20;;;;;;;3.20;1.77;;;8.10;99.90;;;;;;4835449;29;20240;-87
2020/12/30 12:56:47;;;;;;;2.93;2.37;;;8.80;99.90;;;;;;4838139;29;21036;-88
2020/12/30 12:59:13;;;;;;;5.33;3.87;;;8.10;99.90;;;;;;4856800;29;20451;-87
2020/12/30 13:01:45;;;;;;;3.80;3.40;;;7.40;99.90;;;;;;4835407;29;20462;-88
2020/12/30 13:04:12;;;;;;;3.30;2.90;;;6.70;99.90;;;;;;4844344;29;20216;-87
2020/12/30 13:06:41;;;;;;;3.20;2.50;;;6.60;99.90;;;;;;4836024;29;20453;-86
2020/12/30 13:09:24;;;;;;;2.30;2.10;;;6.30;99.90;;;;;;4835629;29;20513;-86
2020/12/30 13:12:01;;;;;;;2.10;1.90;;;6.30;99.90;;;;;;4836723;29;20439;-89
2020/12/30 13:14:27;;;;;;;7.60;4.83;;;6.30;99.90;;;;;;4837224;29;20572;-89
2020/12/30 13:16:53;;;;;;;5.27;2.80;;;6.10;99.90;;;;;;4837839;29;21162;-87